Chantaco — FMLM — position and weather

sailwx.info

Track history (hours):
 
Tides and Currents Weather Stations Pressure Air Temp Water Temp Dewpoint Dewpoint Depression Visibility Wind Speed Wind Dir Waves Ship Positions

Chantaco

Last reported at 2014-Oct-21 03:29 UTC. Time now 2014-Oct-21 05:36 UTC.
Position N 51°19' E 004°18'.

Length 143 m; draft 8.3 m.

Type: Tanker. MMSI: 228330700.

Date/timePositionNaut miles runAvg speedWind from/ knotsBaromVisibWave heightAir tempDewpointWater temp
2014-Oct-21 03:29N 51°19' E 004°18'0 0.0
2014-Oct-21 02:23N 51°20' E 004°18'0 0.0
2014-Oct-20 19:23N 51°19' E 004°18'0 0.0
2014-Oct-20 18:32N 51°19' E 004°18'0 0.0
2014-Oct-20 17:26N 51°20' E 004°18'0 0.2
2014-Oct-20 15:33N 51°20' E 004°18'1 1.1
2014-Oct-20 14:33N 51°21' E 004°17'6 6.1
2014-Oct-20 13:33N 51°22' E 004°08'7 7.2
2014-Oct-20 12:33N 51°22' E 003°56'1010.2
2014-Oct-20 11:34N 51°26' E 003°41'9 8.8
2014-Oct-20 10:33N 51°25' E 003°27'1413.6
2014-Oct-20 09:33N 51°24' E 003°05'1413.5
2014-Oct-20 08:32N 51°22' E 002°43'1212.2
2014-Oct-20 07:33N 51°20' E 002°24'1212.4
2014-Oct-20 06:33N 51°14' E 002°07'1211.7
2014-Oct-20 05:33N 51°08' E 001°51'1111.0
2014-Oct-20 04:33N 51°00' E 001°39'1111.0
2014-Oct-20 03:33N 50°52' E 001°28'1211.6
2014-Oct-20 02:33N 50°42' E 001°19'8012.7
2014-Oct-19 20:16N 49°42' W 000°04'913.1
2014-Oct-19 19:33N 49°33' W 000°00'8 8.1
2014-Oct-19 18:33N 49°29' E 000°10'1 0.5
2014-Oct-19 17:24N 49°29' E 000°11'0 0.0
2014-Oct-19 15:12N 49°29' E 000°11'0 0.0
2014-Oct-19 14:30N 49°29' E 000°11'0 0.0
2014-Oct-19 13:24N 49°29' E 000°11'0 0.0
2014-Oct-19 12:33N 49°29' E 000°11'0 0.0
2014-Oct-19 11:18N 49°29' E 000°11'0 0.0
2014-Oct-19 09:21N 49°29' E 000°11'0 0.0
2014-Oct-19 08:30N 49°29' E 000°11'0 0.0
2014-Oct-19 07:18N 49°29' E 000°11'0 0.0
2014-Oct-19 06:30N 49°29' E 000°11'0 0.0
2014-Oct-19 05:30N 49°29' E 000°11'0 0.0
2014-Oct-19 04:30N 49°29' E 000°11'0 0.0
2014-Oct-19 03:24N 49°29' E 000°11'0 0.0
2014-Oct-19 02:12N 49°29' E 000°11'0 0.0
2014-Oct-19 01:30N 49°29' E 000°11'0 0.0
2014-Oct-19 00:30N 49°29' E 000°11'0 0.0
2014-Oct-18 23:18N 49°29' E 000°11'0 0.0
2014-Oct-18 21:29N 49°29' E 000°11'0 0.0
2014-Oct-18 20:17N 49°29' E 000°11'0 0.0
2014-Oct-18 19:32N 49°29' E 000°11'0 0.0
2014-Oct-18 18:29N 49°29' E 000°11'0 0.0
2014-Oct-18 17:05N 49°29' E 000°11'0 0.0
2014-Oct-18 16:29N 49°29' E 000°11'0 0.0
2014-Oct-18 14:26N 49°29' E 000°11'0 0.0
2014-Oct-18 13:29N 49°29' E 000°11'0 0.0
2014-Oct-18 12:17N 49°29' E 000°11'0 0.0
2014-Oct-18 11:29N 49°29' E 000°11'0 0.0
2014-Oct-18 10:05N 49°29' E 000°11'0 0.0
2014-Oct-18 09:29N 49°29' E 000°11'0 0.0
2014-Oct-18 08:11N 49°29' E 000°11'0 0.0
2014-Oct-18 07:32N 49°29' E 000°11'0 0.0
2014-Oct-18 06:23N 49°29' E 000°11'0 0.0
2014-Oct-18 05:32N 49°29' E 000°11'0 0.0
2014-Oct-18 04:29N 49°29' E 000°11'0 0.0
2014-Oct-18 03:29N 49°29' E 000°11'0 0.0
2014-Oct-18 02:23N 49°29' E 000°11'0 0.0
2014-Oct-18 01:11N 49°29' E 000°11'0 0.0
2014-Oct-18 00:26N 49°29' E 000°11'0 0.0
2014-Oct-17 23:29N 49°29' E 000°11'0 0.0
2014-Oct-17 22:23N 49°29' E 000°11'0 0.0
2014-Oct-17 21:29N 49°29' E 000°11'0 0.0
2014-Oct-17 20:23N 49°29' E 000°11'0 0.0
2014-Oct-17 19:32N 49°29' E 000°11'0 0.0
2014-Oct-17 17:17N 49°29' E 000°11'0 0.0
2014-Oct-17 16:23N 49°29' E 000°11'1 0.7
2014-Oct-17 15:33N 49°29' E 000°10'0 0.5
2014-Oct-17 14:34N 49°28' E 000°10'5 4.8
2014-Oct-17 13:33N 49°30' E 000°03'10 9.8
2014-Oct-17 12:33N 49°38' W 000°05'1312.7
2014-Oct-17 11:34N 49°49' E 000°04'3113.3
2014-Oct-17 09:13N 50°15' E 000°33'812.8
2014-Oct-17 08:33N 50°22' E 000°39'1312.6
2014-Oct-17 07:33N 50°35' E 000°38'1312.5
2014-Oct-17 06:33N 50°43' E 000°54'1412.0
2014-Oct-17 05:23N 50°52' E 001°11'1011.8
2014-Oct-17 04:32N 50°58' E 001°23'1212.5
2014-Oct-17 03:33N 51°08' E 001°35'1313.1
2014-Oct-17 02:34N 51°20' E 001°43'1413.6
2014-Oct-17 01:34N 51°33' E 001°44'1313.4
2014-Oct-17 00:33N 51°47' E 001°44'1313.0
2014-Oct-16 23:34N 51°60' E 001°46'1312.9
2014-Oct-16 22:34N 52°12' E 001°49'1212.4
2014-Oct-16 21:33N 52°25' E 001°53'1212.1
2014-Oct-16 20:34N 52°37' E 001°56'1111.0
2014-Oct-16 19:33N 52°47' E 001°50'1212.3
2014-Oct-16 18:33N 52°54' E 001°34'1212.4
2014-Oct-16 17:33N 53°00' E 001°15'3012.9
2014-Oct-16 15:13N 53°20' E 000°38'913.3
2014-Oct-16 14:33N 53°28' E 000°30'1211.6
2014-Oct-16 13:34N 53°32' E 000°13'1413.8
2014-Oct-16 12:33N 53°38' W 000°09'1 0.5
2014-Oct-16 11:31N 53°38' W 000°10'0 0.0
2014-Oct-16 10:31N 53°38' W 000°10'0 0.0
2014-Oct-16 09:31N 53°38' W 000°10'0 0.0
2014-Oct-16 08:31N 53°38' W 000°10'0 0.0
2014-Oct-16 07:28N 53°38' W 000°10'0 0.0
2014-Oct-16 06:31N 53°38' W 000°10'0 0.0
2014-Oct-16 05:28N 53°38' W 000°10'0 0.0
2014-Oct-16 04:31N 53°38' W 000°10'0 0.0
2014-Oct-16 03:28N 53°38' W 000°10'0 0.0
2014-Oct-16 02:28N 53°38' W 000°10'0 0.0
2014-Oct-16 01:34N 53°38' W 000°10'0 0.0
2014-Oct-16 00:34N 53°38' W 000°10'0 0.0
2014-Oct-15 23:30N 53°38' W 000°10'0 0.0
2014-Oct-15 22:30N 53°38' W 000°10'0 0.0
2014-Oct-15 21:33N 53°38' W 000°10'0 0.0
2014-Oct-15 20:33N 53°38' W 000°10'0 0.0
2014-Oct-15 19:27N 53°38' W 000°10'0 0.0
2014-Oct-15 18:33N 53°38' W 000°10'0 0.0
2014-Oct-15 17:33N 53°38' W 000°10'0 0.0
2014-Oct-15 16:30N 53°38' W 000°10'0 0.0
2014-Oct-15 15:34N 53°38' W 000°10'0 0.0
2014-Oct-15 14:33N 53°38' W 000°10'0 0.0
2014-Oct-15 13:33N 53°38' W 000°10'0 0.0
2014-Oct-15 12:30N 53°38' W 000°10'0 0.0
2014-Oct-15 11:21N 53°38' W 000°10'0 0.5
2014-Oct-15 10:34N 53°38' W 000°09'7 7.3
2014-Oct-15 09:33N 53°35' E 000°02'1212.2
2014-Oct-15 08:33N 53°33' E 000°23'4 3.7
2014-Oct-15 07:28N 53°36' E 000°27'0 0.0
2014-Oct-15 06:28N 53°36' E 000°27'0 0.0
2014-Oct-15 05:16N 53°36' E 000°27'0 0.0
2014-Oct-15 04:28N 53°37' E 000°27'0 0.1
2014-Oct-15 03:31N 53°37' E 000°27'0 0.0
2014-Oct-15 02:34N 53°37' E 000°27'0 0.0
2014-Oct-15 01:30N 53°37' E 000°27'0 0.1
2014-Oct-15 00:33N 53°37' E 000°27'0 0.1
2014-Oct-14 23:33N 53°36' E 000°27'0 0.0
2014-Oct-14 22:27N 53°36' E 000°27'0 0.0
2014-Oct-14 21:24N 53°36' E 000°27'0 0.0
2014-Oct-14 20:33N 53°36' E 000°27'0 0.0
2014-Oct-14 19:33N 53°36' E 000°27'0 0.0
2014-Oct-14 18:24N 53°36' E 000°27'0 0.0
2014-Oct-14 17:27N 53°36' E 000°27'0 0.0
2014-Oct-14 16:27N 53°36' E 000°27'0 0.1
2014-Oct-14 15:30N 53°37' E 000°27'0 0.1
2014-Oct-14 14:33N 53°37' E 000°27'0 0.0
2014-Oct-14 13:33N 53°37' E 000°27'0 0.1
2014-Oct-14 12:33N 53°37' E 000°27'0 0.1
2014-Oct-14 11:33N 53°36' E 000°27'0 0.0
2014-Oct-14 10:27N 53°36' E 000°27'0 0.0
2014-Oct-14 09:24N 53°36' E 000°27'0 0.0
2014-Oct-14 08:33N 53°36' E 000°27'4 4.5
2014-Oct-14 07:34N 53°32' E 000°28'1 1.1
2014-Oct-14 06:33N 53°31' E 000°28'1 1.3
2014-Oct-14 05:33N 53°30' E 000°30'3 3.4
2014-Oct-14 04:32N 53°33' E 000°32'3 3.3
2014-Oct-14 03:33N 53°36' E 000°35'2 2.1
2014-Oct-14 02:34N 53°38' E 000°37'3 2.8
2014-Oct-14 01:31N 53°35' E 000°35'3 3.1
2014-Oct-14 00:33N 53°32' E 000°33'2 2.4
2014-Oct-13 23:33N 53°30' E 000°31'2 1.8
2014-Oct-13 22:32N 53°28' E 000°30'1 0.8
2014-Oct-13 21:32N 53°28' E 000°29'7 7.6
2014-Oct-13 20:33N 53°35' E 000°28'1 1.3
2014-Oct-13 19:26N 53°37' E 000°27'0 0.0
2014-Oct-13 18:29N 53°37' E 000°27'0 0.0
2014-Oct-13 17:29N 53°37' E 000°27'0 0.0
2014-Oct-13 16:32N 53°37' E 000°27'0 0.1
2014-Oct-13 15:32N 53°37' E 000°27'0 0.0
2014-Oct-13 14:29N 53°37' E 000°27'0 0.1
2014-Oct-13 13:32N 53°37' E 000°27'0 0.0
2014-Oct-13 12:32N 53°37' E 000°27'0 0.1
2014-Oct-13 11:32N 53°37' E 000°27'0 0.0
2014-Oct-13 10:17N 53°37' E 000°27'0 0.0
2014-Oct-13 09:32N 53°37' E 000°27'0 0.3
2014-Oct-13 08:33N 53°36' E 000°27'6 5.8
2014-Oct-13 07:33N 53°31' E 000°31'6 6.0
2014-Oct-13 06:32N 53°25' E 000°35'6 6.5
2014-Oct-13 05:32N 53°19' E 000°39'19 9.1
2014-Oct-13 03:28N 53°05' E 000°60'910.0
2014-Oct-13 02:33N 53°01' E 001°13'1010.2
2014-Oct-13 01:33N 52°57' E 001°28'9 8.8
2014-Oct-13 00:33N 52°51' E 001°40'7 7.3
2014-Oct-12 23:33N 52°47' E 001°50'6 5.9
2014-Oct-12 22:33N 52°42' E 001°55'6 5.7
2014-Oct-12 21:33N 52°36' E 001°56'7 6.5
2014-Oct-12 20:33N 52°30' E 001°54'9 8.5
2014-Oct-12 19:33N 52°22' E 001°53'10 9.8
2014-Oct-12 18:33N 52°12' E 001°51'1010.4
2014-Oct-12 17:34N 52°01' E 001°50'1110.7
2014-Oct-12 16:33N 51°51' E 001°49'1010.1
2014-Oct-12 15:33N 51°41' E 001°50'10 9.6
2014-Oct-12 14:33N 51°31' E 001°48'9 9.5
2014-Oct-12 13:33N 51°22' E 001°43'9 9.1
2014-Oct-12 12:33N 51°13' E 001°39'7 7.5
2014-Oct-12 11:33N 51°06' E 001°39'7 6.8
2014-Oct-12 10:33N 51°01' E 001°32'6 5.9
2014-Oct-12 09:33N 50°56' E 001°26'6 6.1
2014-Oct-12 08:33N 50°50' E 001°23'30 7.5
2014-Oct-12 04:33N 50°26' E 000°55'9 8.6
2014-Oct-12 03:31N 50°20' E 000°46'9 8.7
2014-Oct-12 02:27N 50°13' E 000°36'4210.3
2014-Oct-11 22:26N 49°41' W 000°05'9 9.9
2014-Oct-11 21:32N 49°32' W 000°05'2 1.9
2014-Oct-11 20:28N 49°30' W 000°05'0 0.1
2014-Oct-11 19:31N 49°30' W 000°05'0 0.1
2014-Oct-11 18:16N 49°30' W 000°05'0 0.0
2014-Oct-11 16:31N 49°30' W 000°05'0 0.0
2014-Oct-11 15:25N 49°30' W 000°05'0 0.2
2014-Oct-11 14:25N 49°30' W 000°05'0 0.0
2014-Oct-11 13:19N 49°30' W 000°05'0 0.0
2014-Oct-11 12:28N 49°30' W 000°05'0 0.0
2014-Oct-11 11:31N 49°30' W 000°05'0 0.0
2014-Oct-11 10:31N 49°30' W 000°05'0 0.0
2014-Oct-11 09:31N 49°30' W 000°05'0 0.1
2014-Oct-11 08:31N 49°30' W 000°05'0 0.1
2014-Oct-11 06:22N 49°30' W 000°05'0 0.0
2014-Oct-11 05:25N 49°30' W 000°05'0 0.0
2014-Oct-11 04:25N 49°30' W 000°05'0 0.0
2014-Oct-11 03:31N 49°30' W 000°05'  
Track history (hours):
 
Tides and Currents Weather Stations Pressure Air Temp Water Temp Dewpoint Dewpoint Depression Visibility Wind Speed Wind Dir Waves Ship Positions

Chantaco

Last reported at 2014-Oct-21 03:29 UTC. Time now 2014-Oct-21 05:36 UTC.
Position N 51°19' E 004°18'.

Length 143 m; draft 8.3 m.

Type: Tanker. MMSI: 228330700.

Date/timePositionNaut miles runAvg speedWind from/ knotsBaromVisibWave heightAir tempDewpointWater temp
2014-Oct-21 03:29N 51°19' E 004°18'0 0.0
2014-Oct-21 02:23N 51°20' E 004°18'0 0.0
2014-Oct-20 19:23N 51°19' E 004°18'0 0.0
2014-Oct-20 18:32N 51°19' E 004°18'0 0.0
2014-Oct-20 17:26N 51°20' E 004°18'0 0.2
2014-Oct-20 15:33N 51°20' E 004°18'1 1.1
2014-Oct-20 14:33N 51°21' E 004°17'6 6.1
2014-Oct-20 13:33N 51°22' E 004°08'7 7.2
2014-Oct-20 12:33N 51°22' E 003°56'1010.2
2014-Oct-20 11:34N 51°26' E 003°41'9 8.8
2014-Oct-20 10:33N 51°25' E 003°27'1413.6
2014-Oct-20 09:33N 51°24' E 003°05'1413.5
2014-Oct-20 08:32N 51°22' E 002°43'1212.2
2014-Oct-20 07:33N 51°20' E 002°24'1212.4
2014-Oct-20 06:33N 51°14' E 002°07'1211.7
2014-Oct-20 05:33N 51°08' E 001°51'1111.0
2014-Oct-20 04:33N 51°00' E 001°39'1111.0
2014-Oct-20 03:33N 50°52' E 001°28'1211.6
2014-Oct-20 02:33N 50°42' E 001°19'8012.7
2014-Oct-19 20:16N 49°42' W 000°04'913.1
2014-Oct-19 19:33N 49°33' W 000°00'8 8.1
2014-Oct-19 18:33N 49°29' E 000°10'1 0.5
2014-Oct-19 17:24N 49°29' E 000°11'0 0.0
2014-Oct-19 15:12N 49°29' E 000°11'0 0.0
2014-Oct-19 14:30N 49°29' E 000°11'0 0.0
2014-Oct-19 13:24N 49°29' E 000°11'0 0.0
2014-Oct-19 12:33N 49°29' E 000°11'0 0.0
2014-Oct-19 11:18N 49°29' E 000°11'0 0.0
2014-Oct-19 09:21N 49°29' E 000°11'0 0.0
2014-Oct-19 08:30N 49°29' E 000°11'0 0.0
2014-Oct-19 07:18N 49°29' E 000°11'0 0.0
2014-Oct-19 06:30N 49°29' E 000°11'0 0.0
2014-Oct-19 05:30N 49°29' E 000°11'0 0.0
2014-Oct-19 04:30N 49°29' E 000°11'0 0.0
2014-Oct-19 03:24N 49°29' E 000°11'0 0.0
2014-Oct-19 02:12N 49°29' E 000°11'0 0.0
2014-Oct-19 01:30N 49°29' E 000°11'0 0.0
2014-Oct-19 00:30N 49°29' E 000°11'0 0.0
2014-Oct-18 23:18N 49°29' E 000°11'0 0.0
2014-Oct-18 21:29N 49°29' E 000°11'0 0.0
2014-Oct-18 20:17N 49°29' E 000°11'0 0.0
2014-Oct-18 19:32N 49°29' E 000°11'0 0.0
2014-Oct-18 18:29N 49°29' E 000°11'0 0.0
2014-Oct-18 17:05N 49°29' E 000°11'0 0.0
2014-Oct-18 16:29N 49°29' E 000°11'0 0.0
2014-Oct-18 14:26N 49°29' E 000°11'0 0.0
2014-Oct-18 13:29N 49°29' E 000°11'0 0.0
2014-Oct-18 12:17N 49°29' E 000°11'0 0.0
2014-Oct-18 11:29N 49°29' E 000°11'0 0.0
2014-Oct-18 10:05N 49°29' E 000°11'0 0.0
2014-Oct-18 09:29N 49°29' E 000°11'0 0.0
2014-Oct-18 08:11N 49°29' E 000°11'0 0.0
2014-Oct-18 07:32N 49°29' E 000°11'0 0.0
2014-Oct-18 06:23N 49°29' E 000°11'0 0.0
2014-Oct-18 05:32N 49°29' E 000°11'0 0.0
2014-Oct-18 04:29N 49°29' E 000°11'0 0.0
2014-Oct-18 03:29N 49°29' E 000°11'0 0.0
2014-Oct-18 02:23N 49°29' E 000°11'0 0.0
2014-Oct-18 01:11N 49°29' E 000°11'0 0.0
2014-Oct-18 00:26N 49°29' E 000°11'0 0.0
2014-Oct-17 23:29N 49°29' E 000°11'0 0.0
2014-Oct-17 22:23N 49°29' E 000°11'0 0.0
2014-Oct-17 21:29N 49°29' E 000°11'0 0.0
2014-Oct-17 20:23N 49°29' E 000°11'0 0.0
2014-Oct-17 19:32N 49°29' E 000°11'0 0.0
2014-Oct-17 17:17N 49°29' E 000°11'0 0.0
2014-Oct-17 16:23N 49°29' E 000°11'1 0.7
2014-Oct-17 15:33N 49°29' E 000°10'0 0.5
2014-Oct-17 14:34N 49°28' E 000°10'5 4.8
2014-Oct-17 13:33N 49°30' E 000°03'10 9.8
2014-Oct-17 12:33N 49°38' W 000°05'1312.7
2014-Oct-17 11:34N 49°49' E 000°04'3113.3
2014-Oct-17 09:13N 50°15' E 000°33'812.8
2014-Oct-17 08:33N 50°22' E 000°39'1312.6
2014-Oct-17 07:33N 50°35' E 000°38'1312.5
2014-Oct-17 06:33N 50°43' E 000°54'1412.0
2014-Oct-17 05:23N 50°52' E 001°11'1011.8
2014-Oct-17 04:32N 50°58' E 001°23'1212.5
2014-Oct-17 03:33N 51°08' E 001°35'1313.1
2014-Oct-17 02:34N 51°20' E 001°43'1413.6
2014-Oct-17 01:34N 51°33' E 001°44'1313.4
2014-Oct-17 00:33N 51°47' E 001°44'1313.0
2014-Oct-16 23:34N 51°60' E 001°46'1312.9
2014-Oct-16 22:34N 52°12' E 001°49'1212.4
2014-Oct-16 21:33N 52°25' E 001°53'1212.1
2014-Oct-16 20:34N 52°37' E 001°56'1111.0
2014-Oct-16 19:33N 52°47' E 001°50'1212.3
2014-Oct-16 18:33N 52°54' E 001°34'1212.4
2014-Oct-16 17:33N 53°00' E 001°15'3012.9
2014-Oct-16 15:13N 53°20' E 000°38'913.3
2014-Oct-16 14:33N 53°28' E 000°30'1211.6
2014-Oct-16 13:34N 53°32' E 000°13'1413.8
2014-Oct-16 12:33N 53°38' W 000°09'1 0.5
2014-Oct-16 11:31N 53°38' W 000°10'0 0.0
2014-Oct-16 10:31N 53°38' W 000°10'0 0.0
2014-Oct-16 09:31N 53°38' W 000°10'0 0.0
2014-Oct-16 08:31N 53°38' W 000°10'0 0.0
2014-Oct-16 07:28N 53°38' W 000°10'0 0.0
2014-Oct-16 06:31N 53°38' W 000°10'0 0.0
2014-Oct-16 05:28N 53°38' W 000°10'0 0.0
2014-Oct-16 04:31N 53°38' W 000°10'0 0.0
2014-Oct-16 03:28N 53°38' W 000°10'0 0.0
2014-Oct-16 02:28N 53°38' W 000°10'0 0.0
2014-Oct-16 01:34N 53°38' W 000°10'0 0.0
2014-Oct-16 00:34N 53°38' W 000°10'0 0.0
2014-Oct-15 23:30N 53°38' W 000°10'0 0.0
2014-Oct-15 22:30N 53°38' W 000°10'0 0.0
2014-Oct-15 21:33N 53°38' W 000°10'0 0.0
2014-Oct-15 20:33N 53°38' W 000°10'0 0.0
2014-Oct-15 19:27N 53°38' W 000°10'0 0.0
2014-Oct-15 18:33N 53°38' W 000°10'0 0.0
2014-Oct-15 17:33N 53°38' W 000°10'0 0.0
2014-Oct-15 16:30N 53°38' W 000°10'0 0.0
2014-Oct-15 15:34N 53°38' W 000°10'0 0.0
2014-Oct-15 14:33N 53°38' W 000°10'0 0.0
2014-Oct-15 13:33N 53°38' W 000°10'0 0.0
2014-Oct-15 12:30N 53°38' W 000°10'0 0.0
2014-Oct-15 11:21N 53°38' W 000°10'0 0.5
2014-Oct-15 10:34N 53°38' W 000°09'7 7.3
2014-Oct-15 09:33N 53°35' E 000°02'1212.2
2014-Oct-15 08:33N 53°33' E 000°23'4 3.7
2014-Oct-15 07:28N 53°36' E 000°27'0 0.0
2014-Oct-15 06:28N 53°36' E 000°27'0 0.0
2014-Oct-15 05:16N 53°36' E 000°27'0 0.0
2014-Oct-15 04:28N 53°37' E 000°27'0 0.1
2014-Oct-15 03:31N 53°37' E 000°27'0 0.0
2014-Oct-15 02:34N 53°37' E 000°27'0 0.0
2014-Oct-15 01:30N 53°37' E 000°27'0 0.1
2014-Oct-15 00:33N 53°37' E 000°27'0 0.1
2014-Oct-14 23:33N 53°36' E 000°27'0 0.0
2014-Oct-14 22:27N 53°36' E 000°27'0 0.0
2014-Oct-14 21:24N 53°36' E 000°27'0 0.0
2014-Oct-14 20:33N 53°36' E 000°27'0 0.0
2014-Oct-14 19:33N 53°36' E 000°27'0 0.0
2014-Oct-14 18:24N 53°36' E 000°27'0 0.0
2014-Oct-14 17:27N 53°36' E 000°27'0 0.0
2014-Oct-14 16:27N 53°36' E 000°27'0 0.1
2014-Oct-14 15:30N 53°37' E 000°27'0 0.1
2014-Oct-14 14:33N 53°37' E 000°27'0 0.0
2014-Oct-14 13:33N 53°37' E 000°27'0 0.1
2014-Oct-14 12:33N 53°37' E 000°27'0 0.1
2014-Oct-14 11:33N 53°36' E 000°27'0 0.0
2014-Oct-14 10:27N 53°36' E 000°27'0 0.0
2014-Oct-14 09:24N 53°36' E 000°27'0 0.0
2014-Oct-14 08:33N 53°36' E 000°27'4 4.5
2014-Oct-14 07:34N 53°32' E 000°28'1 1.1
2014-Oct-14 06:33N 53°31' E 000°28'1 1.3
2014-Oct-14 05:33N 53°30' E 000°30'3 3.4
2014-Oct-14 04:32N 53°33' E 000°32'3 3.3
2014-Oct-14 03:33N 53°36' E 000°35'2 2.1
2014-Oct-14 02:34N 53°38' E 000°37'3 2.8
2014-Oct-14 01:31N 53°35' E 000°35'3 3.1
2014-Oct-14 00:33N 53°32' E 000°33'2 2.4
2014-Oct-13 23:33N 53°30' E 000°31'2 1.8
2014-Oct-13 22:32N 53°28' E 000°30'1 0.8
2014-Oct-13 21:32N 53°28' E 000°29'7 7.6
2014-Oct-13 20:33N 53°35' E 000°28'1 1.3
2014-Oct-13 19:26N 53°37' E 000°27'0 0.0
2014-Oct-13 18:29N 53°37' E 000°27'0 0.0
2014-Oct-13 17:29N 53°37' E 000°27'0 0.0
2014-Oct-13 16:32N 53°37' E 000°27'0 0.1
2014-Oct-13 15:32N 53°37' E 000°27'0 0.0
2014-Oct-13 14:29N 53°37' E 000°27'0 0.1
2014-Oct-13 13:32N 53°37' E 000°27'0 0.0
2014-Oct-13 12:32N 53°37' E 000°27'0 0.1
2014-Oct-13 11:32N 53°37' E 000°27'0 0.0
2014-Oct-13 10:17N 53°37' E 000°27'0 0.0
2014-Oct-13 09:32N 53°37' E 000°27'0 0.3
2014-Oct-13 08:33N 53°36' E 000°27'6 5.8
2014-Oct-13 07:33N 53°31' E 000°31'6 6.0
2014-Oct-13 06:32N 53°25' E 000°35'6 6.5
2014-Oct-13 05:32N 53°19' E 000°39'19 9.1
2014-Oct-13 03:28N 53°05' E 000°60'910.0
2014-Oct-13 02:33N 53°01' E 001°13'1010.2
2014-Oct-13 01:33N 52°57' E 001°28'9 8.8
2014-Oct-13 00:33N 52°51' E 001°40'7 7.3
2014-Oct-12 23:33N 52°47' E 001°50'6 5.9
2014-Oct-12 22:33N 52°42' E 001°55'6 5.7
2014-Oct-12 21:33N 52°36' E 001°56'7 6.5
2014-Oct-12 20:33N 52°30' E 001°54'9 8.5
2014-Oct-12 19:33N 52°22' E 001°53'10 9.8
2014-Oct-12 18:33N 52°12' E 001°51'1010.4
2014-Oct-12 17:34N 52°01' E 001°50'1110.7
2014-Oct-12 16:33N 51°51' E 001°49'1010.1
2014-Oct-12 15:33N 51°41' E 001°50'10 9.6
2014-Oct-12 14:33N 51°31' E 001°48'9 9.5
2014-Oct-12 13:33N 51°22' E 001°43'9 9.1
2014-Oct-12 12:33N 51°13' E 001°39'7 7.5
2014-Oct-12 11:33N 51°06' E 001°39'7 6.8
2014-Oct-12 10:33N 51°01' E 001°32'6 5.9
2014-Oct-12 09:33N 50°56' E 001°26'6 6.1
2014-Oct-12 08:33N 50°50' E 001°23'30 7.5
2014-Oct-12 04:33N 50°26' E 000°55'9 8.6
2014-Oct-12 03:31N 50°20' E 000°46'9 8.7
2014-Oct-12 02:27N 50°13' E 000°36'4210.3
2014-Oct-11 22:26N 49°41' W 000°05'9 9.9
2014-Oct-11 21:32N 49°32' W 000°05'2 1.9
2014-Oct-11 20:28N 49°30' W 000°05'0 0.1
2014-Oct-11 19:31N 49°30' W 000°05'0 0.1
2014-Oct-11 18:16N 49°30' W 000°05'0 0.0
2014-Oct-11 16:31N 49°30' W 000°05'0 0.0
2014-Oct-11 15:25N 49°30' W 000°05'0 0.2
2014-Oct-11 14:25N 49°30' W 000°05'0 0.0
2014-Oct-11 13:19N 49°30' W 000°05'0 0.0
2014-Oct-11 12:28N 49°30' W 000°05'0 0.0
2014-Oct-11 11:31N 49°30' W 000°05'0 0.0
2014-Oct-11 10:31N 49°30' W 000°05'0 0.0
2014-Oct-11 09:31N 49°30' W 000°05'0 0.1
2014-Oct-11 08:31N 49°30' W 000°05'0 0.1
2014-Oct-11 06:22N 49°30' W 000°05'0 0.0
2014-Oct-11 05:25N 49°30' W 000°05'0 0.0
2014-Oct-11 04:25N 49°30' W 000°05'0 0.0
2014-Oct-11 03:31N 49°30' W 000°05'  

Dump ship's entire track history